createdAt,value
2023-01-07T00:00:01.417Z,85.13
2023-01-07T00:10:01.976Z,85.12
2023-01-07T00:20:02.006Z,85.10
2023-01-07T00:30:02.019Z,85.05
2023-01-07T00:40:02.025Z,85.05
2023-01-07T00:50:02.181Z,85.00
2023-01-07T01:00:02.566Z,84.93
2023-01-07T01:10:03.042Z,84.88
2023-01-07T01:20:03.135Z,84.81
2023-01-07T01:30:03.671Z,84.74
2023-01-07T01:40:04.172Z,84.66
2023-01-07T01:50:06.041Z,84.58
2023-01-07T02:00:11.498Z,84.57
2023-01-07T02:10:11.344Z,84.50
2023-01-07T02:20:13.165Z,84.43
2023-01-07T02:30:13.367Z,84.33
2023-01-07T02:40:13.262Z,84.33
2023-01-07T02:50:13.469Z,84.27
2023-01-07T03:00:13.308Z,84.21
2023-01-07T03:10:13.424Z,84.11
2023-01-07T03:20:13.355Z,84.02
2023-01-07T03:30:13.302Z,83.94
2023-01-07T03:40:13.728Z,84.03
2023-01-07T03:50:16.163Z,84.16
2023-01-07T04:00:18.278Z,84.14
2023-01-07T04:10:18.378Z,84.24
2023-01-07T04:20:18.501Z,84.27
2023-01-07T04:30:18.464Z,84.35
2023-01-07T04:40:18.872Z,84.30
2023-01-07T04:50:19.524Z,84.27
2023-01-07T05:00:20.689Z,84.23
2023-01-07T05:10:20.936Z,84.23
2023-01-07T05:20:21.503Z,84.13
2023-01-07T05:30:21.541Z,84.04
2023-01-07T05:40:21.440Z,83.91
2023-01-07T05:50:23.289Z,83.76
2023-01-07T06:00:23.474Z,83.60
2023-01-07T06:10:26.515Z,83.52
2023-01-07T06:20:26.523Z,83.47
2023-01-07T06:30:26.449Z,83.41
2023-01-07T06:40:26.428Z,83.33
2023-01-07T06:50:26.637Z,83.25
2023-01-07T07:00:26.567Z,83.15
2023-01-07T07:10:26.536Z,83.03
2023-01-07T07:20:28.876Z,82.99
2023-01-07T07:30:45.884Z,82.80
2023-01-07T07:40:30.532Z,82.44
2023-01-07T07:50:30.548Z,82.14
2023-01-07T08:00:30.556Z,81.94
2023-01-07T08:10:30.577Z,81.83
2023-01-07T08:20:30.678Z,81.67
2023-01-07T08:30:30.709Z,81.46
2023-01-07T08:40:30.652Z,81.17
2023-01-07T08:50:30.822Z,81.01
2023-01-07T09:00:30.763Z,80.78
2023-01-07T09:10:30.644Z,80.61
2023-01-07T09:20:50.066Z,80.25
2023-01-07T09:30:50.746Z,79.41
2023-01-07T09:40:50.837Z,78.42
2023-01-07T09:50:50.189Z,76.71
2023-01-07T10:00:50.758Z,76.32
2023-01-07T10:10:50.758Z,75.63
2023-01-07T10:20:50.776Z,75.69
2023-01-07T10:30:51.782Z,75.51
2023-01-07T10:40:52.021Z,74.98
2023-01-07T10:50:51.937Z,74.31
2023-01-07T11:00:52.019Z,73.46
2023-01-07T11:10:51.902Z,73.05
2023-01-07T11:20:52.000Z,73.10
2023-01-07T11:30:51.842Z,72.30
2023-01-07T11:40:51.898Z,71.18
2023-01-07T11:50:51.876Z,70.18
2023-01-07T12:00:51.898Z,69.63
2023-01-07T12:10:51.915Z,68.94
2023-01-07T12:20:51.936Z,68.43
2023-01-07T12:30:54.025Z,68.25
2023-01-07T12:40:53.928Z,68.09
2023-01-07T12:50:54.014Z,68.17
2023-01-07T13:00:54.070Z,68.30
2023-01-07T13:10:53.936Z,68.24
2023-01-07T13:20:53.998Z,68.50
2023-01-07T13:30:54.101Z,68.29
2023-01-07T13:40:53.987Z,68.11
2023-01-07T13:50:54.100Z,67.27
2023-01-07T14:00:54.063Z,67.21
2023-01-07T14:10:54.131Z,67.04
2023-01-07T14:20:54.131Z,67.19
2023-01-07T14:30:54.613Z,66.86
2023-01-07T14:40:55.138Z,66.50
2023-01-07T14:50:55.116Z,66.69
2023-01-07T15:00:55.164Z,66.95
2023-01-07T15:11:13.341Z,67.57
2023-01-07T15:21:17.689Z,67.97
2023-01-07T15:31:18.174Z,68.54
2023-01-07T15:41:21.230Z,69.20
2023-01-07T15:51:21.299Z,69.83
2023-01-07T16:01:21.480Z,70.44
2023-01-07T16:11:21.188Z,70.89
2023-01-07T16:21:21.252Z,71.39
2023-01-07T16:31:21.257Z,71.73
2023-01-07T16:41:21.191Z,72.06
2023-01-07T16:51:21.309Z,72.30
2023-01-07T17:01:21.513Z,72.53
2023-01-07T17:11:21.277Z,72.63
2023-01-07T17:21:21.330Z,72.82
2023-01-07T17:31:24.638Z,73.03
2023-01-07T17:41:43.637Z,73.09
2023-01-07T17:51:43.339Z,73.19
2023-01-07T18:01:43.587Z,73.15
2023-01-07T18:12:01.681Z,73.14
2023-01-07T18:22:01.384Z,73.13
2023-01-07T18:32:01.401Z,73.11
2023-01-07T18:42:01.357Z,73.00
2023-01-07T18:52:01.443Z,72.96
2023-01-07T19:02:01.615Z,72.82
2023-01-07T19:12:01.496Z,72.74
2023-01-07T19:22:01.549Z,72.82
2023-01-07T19:32:01.652Z,72.79
2023-01-07T19:42:01.510Z,72.72
2023-01-07T19:52:01.530Z,72.61
2023-01-07T20:02:01.926Z,72.42
2023-01-07T20:12:02.487Z,72.33
2023-01-07T20:22:02.716Z,72.25
2023-01-07T20:32:04.597Z,72.21
2023-01-07T20:42:05.587Z,72.41
2023-01-07T20:52:05.647Z,73.19
2023-01-07T21:02:05.820Z,74.00
2023-01-07T21:12:06.664Z,74.92
2023-01-07T21:22:06.684Z,75.48
2023-01-07T21:32:06.698Z,75.82
2023-01-07T21:42:08.546Z,76.00
2023-01-07T21:52:08.934Z,76.11
2023-01-07T22:02:08.802Z,76.13
2023-01-07T22:12:08.715Z,76.07
2023-01-07T22:22:08.746Z,75.96
2023-01-07T22:32:08.656Z,75.79
2023-01-07T22:42:08.733Z,75.59
2023-01-07T22:52:08.748Z,75.44
2023-01-07T23:02:09.407Z,75.40
2023-01-07T23:12:10.653Z,75.35
2023-01-07T23:22:10.816Z,75.39
2023-01-07T23:32:12.094Z,75.41
2023-01-07T23:42:11.806Z,75.49
2023-01-07T23:52:11.883Z,75.67
